地図

経路データ

SID SEASON NUMBER BASIN SUBBASIN NAME ISO_TIME NATURE LAT LON WMO_WIND WMO_PRES WMO_AGENCY TRACK_TYPE DIST2LAND LANDFALL IFLAG USA_AGENCY USA_ATCF_ID USA_LAT USA_LON USA_RECORD USA_STATUS USA_WIND USA_PRES USA_SSHS USA_R34_NE USA_R34_SE USA_R34_SW USA_R34_NW USA_R50_NE USA_R50_SE USA_R50_SW USA_R50_NW USA_R64_NE USA_R64_SE USA_R64_SW USA_R64_NW USA_POCI USA_ROCI USA_RMW USA_EYE TOKYO_LAT TOKYO_LON TOKYO_GRADE TOKYO_WIND TOKYO_PRES TOKYO_R50_DIR TOKYO_R50_LONG TOKYO_R50_SHORT TOKYO_R30_DIR TOKYO_R30_LONG TOKYO_R30_SHORT TOKYO_LAND CMA_LAT CMA_LON CMA_CAT CMA_WIND CMA_PRES HKO_LAT HKO_LON HKO_CAT HKO_WIND HKO_PRES NEWDELHI_LAT NEWDELHI_LON NEWDELHI_GRADE NEWDELHI_WIND NEWDELHI_PRES NEWDELHI_CI NEWDELHI_DP NEWDELHI_POCI REUNION_LAT REUNION_LON REUNION_TYPE REUNION_WIND REUNION_PRES REUNION_TNUM REUNION_CI REUNION_RMW REUNION_R34_NE REUNION_R34_SE REUNION_R34_SW REUNION_R34_NW REUNION_R50_NE REUNION_R50_SE REUNION_R50_SW REUNION_R50_NW REUNION_R64_NE REUNION_R64_SE REUNION_R64_SW REUNION_R64_NW BOM_LAT BOM_LON BOM_TYPE BOM_WIND BOM_PRES BOM_TNUM BOM_CI BOM_RMW BOM_R34_NE BOM_R34_SE BOM_R34_SW BOM_R34_NW BOM_R50_NE BOM_R50_SE BOM_R50_SW BOM_R50_NW BOM_R64_NE BOM_R64_SE BOM_R64_SW BOM_R64_NW BOM_ROCI BOM_POCI BOM_EYE BOM_POS_METHOD BOM_PRES_METHOD NADI_LAT NADI_LON NADI_CAT NADI_WIND NADI_PRES WELLINGTON_LAT WELLINGTON_LON WELLINGTON_WIND WELLINGTON_PRES DS824_LAT DS824_LON DS824_STAGE DS824_WIND DS824_PRES TD9636_LAT TD9636_LON TD9636_STAGE TD9636_WIND TD9636_PRES TD9635_LAT TD9635_LON TD9635_WIND TD9635_PRES TD9635_ROCI NEUMANN_LAT NEUMANN_LON NEUMANN_CLASS NEUMANN_WIND NEUMANN_PRES MLC_LAT MLC_LON MLC_CLASS MLC_WIND MLC_PRES USA_GUST BOM_GUST BOM_GUST_PER REUNION_GUST REUNION_GUST_PER USA_SEAHGT USA_SEARAD_NE USA_SEARAD_SE USA_SEARAD_SW USA_SEARAD_NW STORM_SPEED STORM_DIR
1994249N11200 1994 78 EP CP MELE 1994-09-06 00:00:00 TS 10.7000 -159.600 25 hurdat_epa main 1009 1009 O_____________ hurdat_epa CP021994 10.7000 -159.600 TD 25 -1 16 273
1994249N11200 1994 78 EP CP MELE 1994-09-06 03:00:00 TS 10.7429 -160.403 main 1047 1043 P_____________ CP021994 10.7429 -160.403 TD 25 -1 16 274
1994249N11200 1994 78 EP CP MELE 1994-09-06 06:00:00 TS 10.8000 -161.200 25 hurdat_epa main 1082 1082 O_____________ hurdat_epa CP021994 10.8000 -161.200 TD 25 -1 16 275
1994249N11200 1994 78 EP CP MELE 1994-09-06 09:00:00 TS 10.8849 -161.980 main 1122 1122 P_____________ CP021994 10.8849 -161.980 TD 27 -1 15 278
1994249N11200 1994 78 EP CP MELE 1994-09-06 12:00:00 TS 11.0000 -162.700 30 hurdat_epa main 1160 1160 O_____________ hurdat_epa CP021994 11.0000 -162.700 TD 30 -1 14 281
1994249N11200 1994 78 EP CP MELE 1994-09-06 15:00:00 TS 11.1423 -163.330 main 1194 1194 P_____________ CP021994 11.1423 -163.330 TD 30 -1 12 284
1994249N11200 1994 78 EP CP MELE 1994-09-06 18:00:00 TS 11.3000 -163.900 30 hurdat_epa main 1223 1223 O_____________ hurdat_epa CP021994 11.3000 -163.900 TD 30 -1 11 286
1994249N11200 1994 78 EP CP MELE 1994-09-06 21:00:00 TS 11.4499 -164.458 main 1262 1254 P_____________ CP021994 11.4499 -164.458 TD 32 -1 11 286
1994249N11200 1994 78 EP CP MELE 1994-09-07 00:00:00 TS 11.6000 -165.000 35 hurdat_epa main 1286 1286 O_____________ hurdat_epa CP021994 11.6000 -165.000 TS 35 0 11 285
1994249N11200 1994 78 EP CP MELE 1994-09-07 03:00:00 TS 11.7424 -165.550 main 1307 1297 P_____________ CP021994 11.7424 -165.550 TS 35 0 11 286
1994249N11200 1994 78 EP CP MELE 1994-09-07 06:00:00 TS 11.9000 -166.100 35 hurdat_epa main 1313 1309 O_____________ hurdat_epa CP021994 11.9000 -166.100 TS 35 0 11 289
1994249N11200 1994 78 EP CP MELE 1994-09-07 09:00:00 TS 12.0997 -166.628 main 1322 1322 P_____________ CP021994 12.0997 -166.628 TS 35 0 11 290
1994249N11200 1994 78 EP CP MELE 1994-09-07 12:00:00 TS 12.3000 -167.200 35 hurdat_epa main 1339 1339 O_____________ hurdat_epa CP021994 12.3000 -167.200 TS 35 0 13 286
1994249N11200 1994 78 EP CP MELE 1994-09-07 15:00:00 TS 12.4575 -167.878 main 1366 1366 P_____________ CP021994 12.4575 -167.878 TS 35 0 14 282
1994249N11200 1994 78 EP CP MELE 1994-09-07 18:00:00 TS 12.6000 -168.600 35 hurdat_epa main 1406 1406 O_____________ hurdat_epa CP021994 12.6000 -168.600 TS 35 0 15 282
1994249N11200 1994 78 EP CP MELE 1994-09-07 21:00:00 TS 12.7650 -169.330 main 1439 1439 P_____________ CP021994 12.7650 -169.330 TS 35 0 14 282
1994249N11200 1994 78 EP CP MELE 1994-09-08 00:00:00 TS 12.9000 -170.000 35 hurdat_epa main 1484 1484 O_____________ hurdat_epa CP021994 12.9000 -170.000 TS 35 0 12 280
1994249N11200 1994 78 EP CP MELE 1994-09-08 03:00:00 TS 12.9647 -170.538 main 1516 1516 P_____________ CP021994 12.9647 -170.538 TS 35 0 10 276
1994249N11200 1994 78 EP CP MELE 1994-09-08 06:00:00 TS 13.0000 -171.000 35 hurdat_epa main 1556 1556 O_____________ hurdat_epa CP021994 13.0000 -171.000 TS 35 0 9 275
1994249N11200 1994 78 EP CP MELE 1994-09-08 09:00:00 TS 13.0499 -171.458 main 1596 1589 P_____________ CP021994 13.0499 -171.458 TS 35 0 9 277
1994249N11200 1994 78 EP CP MELE 1994-09-08 12:00:00 TS 13.1000 -171.900 35 hurdat_epa main 1622 1622 O_____________ hurdat_epa CP021994 13.1000 -171.900 TS 35 0 9 277
1994249N11200 1994 78 EP CP MELE 1994-09-08 15:00:00 TS 13.1498 -172.328 main 1656 1656 P_____________ CP021994 13.1498 -172.328 TS 35 0 9 277
1994249N11200 1994 78 EP CP MELE 1994-09-08 18:00:00 TS 13.2000 -172.800 35 hurdat_epa main 1692 1692 O_____________ hurdat_epa CP021994 13.2000 -172.800 TS 35 0 10 276
1994249N11200 1994 78 EP CP MELE 1994-09-08 21:00:00 TS 13.2501 -173.393 main 1737 1737 P_____________ CP021994 13.2501 -173.393 TS 32 -1 12 275
1994249N11200 1994 78 EP CP MELE 1994-09-09 00:00:00 TS 13.3000 -174.000 30 hurdat_epa main 1790 1790 O_____________ hurdat_epa CP021994 13.3000 -174.000 TD 30 -1 11 275
1994249N11200 1994 78 EP CP MELE 1994-09-09 03:00:00 TS 13.3498 -174.515 main 1835 1828 P_____________ CP021994 13.3498 -174.515 TD 30 -1 10 276
1994249N11200 1994 78 EP CP MELE 1994-09-09 06:00:00 TS 13.4000 -175.000 30 hurdat_epa main 1873 1873 O_____________ hurdat_epa CP021994 13.4000 -175.000 TD 30 -1 10 276
1994249N11200 1994 78 EP CP MELE 1994-09-09 09:00:00 TS 13.4502 -175.495 main 1913 1913 P_____________ CP021994 13.4502 -175.495 TD 27 -1 10 276
1994249N11200 1994 78 EP CP MELE 1994-09-09 12:00:00 TS 13.5000 -176.000 25 hurdat_epa main 1959 O_____________ hurdat_epa CP021994 13.5000 -176.000 TD 25 -1 10 276

IBTrACS Databaseについて

本データベースは、米国NOAAが公開する1842年以降の世界の熱帯低気圧のベストトラックデータアーカイブInternational Best Track Archive for Climate Stewardship (IBTrACS)を、ウェブで閲覧しやすい形式に変換したものです。

最終更新日:2021-10-27